createdAt,value
2019-04-04T00:01:48.062Z,7.91
2019-04-04T00:04:22.228Z,7.80
2019-04-04T00:06:57.625Z,7.80
2019-04-04T00:09:27.711Z,7.80
2019-04-04T00:11:59.376Z,7.67
2019-04-04T00:14:30.870Z,7.70
2019-04-04T00:17:02.523Z,7.68
2019-04-04T00:19:33.925Z,7.61
2019-04-04T00:22:05.572Z,7.61
2019-04-04T00:24:39.352Z,7.55
2019-04-04T00:27:11.166Z,7.45
2019-04-04T00:29:43.104Z,7.45
2019-04-04T00:32:14.718Z,7.40
2019-04-04T00:34:46.374Z,7.34
2019-04-04T00:37:17.842Z,7.22
2019-04-04T00:39:49.109Z,7.22
2019-04-04T00:42:20.383Z,7.23
2019-04-04T00:44:52.031Z,7.19
2019-04-04T00:47:23.706Z,7.00
2019-04-04T00:49:55.015Z,7.05
2019-04-04T00:52:26.581Z,6.99
2019-04-04T00:54:58.268Z,6.85
2019-04-04T00:57:29.575Z,6.88
2019-04-04T01:00:00.880Z,6.78
2019-04-04T01:02:32.829Z,6.70
2019-04-04T01:05:04.188Z,6.65
2019-04-04T01:07:35.902Z,6.65
2019-04-04T01:10:09.239Z,6.55
2019-04-04T01:12:41.623Z,6.57
2019-04-04T01:15:13.148Z,6.56
2019-04-04T01:17:47.106Z,6.47
2019-04-04T01:20:20.347Z,6.39
2019-04-04T01:22:51.828Z,6.44
2019-04-04T01:25:23.839Z,6.36
2019-04-04T01:27:55.886Z,6.35
2019-04-04T01:30:27.304Z,6.30
2019-04-04T01:32:58.587Z,6.29
2019-04-04T01:35:29.852Z,6.27
2019-04-04T01:38:01.167Z,6.23
2019-04-04T01:40:34.656Z,6.23
2019-04-04T01:43:08.823Z,6.22
2019-04-04T01:45:39.507Z,6.18
2019-04-04T01:48:11.177Z,6.14
2019-04-04T01:50:42.848Z,6.15
2019-04-04T01:53:14.806Z,6.05
2019-04-04T01:55:46.843Z,5.94
2019-04-04T01:58:18.172Z,5.92
2019-04-04T02:00:49.492Z,5.87
2019-04-04T02:03:22.664Z,5.93
2019-04-04T02:05:56.223Z,5.98
2019-04-04T02:08:31.696Z,5.96
2019-04-04T02:11:05.482Z,5.98
2019-04-04T02:13:38.879Z,5.96
2019-04-04T02:16:10.561Z,5.87
2019-04-04T02:18:42.311Z,5.68
2019-04-04T02:21:13.624Z,5.55
2019-04-04T02:23:44.978Z,5.49
2019-04-04T02:26:16.671Z,5.58
2019-04-04T02:28:48.352Z,5.51
2019-04-04T02:31:21.038Z,5.44
2019-04-04T02:33:54.302Z,5.43
2019-04-04T02:36:25.550Z,5.33
2019-04-04T02:39:10.579Z,5.20
2019-04-04T02:41:42.046Z,5.21
2019-04-04T02:44:13.801Z,5.16
2019-04-04T02:46:45.834Z,5.13
2019-04-04T02:49:17.252Z,5.14
2019-04-04T02:51:48.497Z,5.08
2019-04-04T02:54:24.228Z,5.05
2019-04-04T02:56:53.092Z,5.07
2019-04-04T02:59:24.483Z,5.04
2019-04-04T03:01:56.413Z,5.02
2019-04-04T03:04:28.139Z,4.98
2019-04-04T03:06:59.764Z,4.99
2019-04-04T03:09:31.100Z,4.93
2019-04-04T03:12:02.391Z,4.99
2019-04-04T03:14:37.404Z,5.03
2019-04-04T03:17:08.532Z,5.07
2019-04-04T03:19:40.755Z,5.11
2019-04-04T03:22:12.739Z,5.08
2019-04-04T03:24:45.128Z,5.09
2019-04-04T03:27:16.782Z,4.99
2019-04-04T03:29:48.417Z,4.91
2019-04-04T03:32:19.695Z,4.81
2019-04-04T03:34:54.451Z,4.81
2019-04-04T03:37:25.739Z,4.81
2019-04-04T03:39:57.043Z,4.77
2019-04-04T03:42:28.471Z,4.69
2019-04-04T03:45:00.401Z,4.70
2019-04-04T03:47:32.157Z,4.70
2019-04-04T03:50:03.452Z,4.69
2019-04-04T03:52:34.721Z,4.71
2019-04-04T03:55:07.140Z,4.79
2019-04-04T03:57:38.749Z,4.85
2019-04-04T04:00:13.932Z,4.86
2019-04-04T04:02:45.256Z,4.87
2019-04-04T04:05:30.938Z,4.88
2019-04-04T04:08:01.133Z,4.87
2019-04-04T04:10:33.824Z,4.88
2019-04-04T04:13:05.587Z,4.91
2019-04-04T04:15:36.864Z,4.90
2019-04-04T04:18:08.496Z,4.91
2019-04-04T04:20:39.793Z,4.89
2019-04-04T04:23:11.077Z,4.89
2019-04-04T04:25:45.005Z,4.84
2019-04-04T04:28:19.809Z,4.84
2019-04-04T04:30:49.321Z,4.87
2019-04-04T04:33:20.658Z,4.88
2019-04-04T04:35:52.622Z,4.91
2019-04-04T04:38:26.878Z,4.91
2019-04-04T04:40:57.293Z,4.91
2019-04-04T04:43:32.393Z,4.96
2019-04-04T04:46:01.543Z,4.94
2019-04-04T04:48:34.195Z,4.97
2019-04-04T04:51:05.617Z,4.99
2019-04-04T04:53:37.065Z,5.00
2019-04-04T04:56:08.514Z,5.04
2019-04-04T04:58:42.128Z,5.04
2019-04-04T05:01:13.225Z,5.10
2019-04-04T05:03:44.574Z,5.13
2019-04-04T05:06:15.925Z,5.19
2019-04-04T05:08:48.284Z,5.19
2019-04-04T05:11:20.212Z,5.22
2019-04-04T05:13:52.520Z,5.22
2019-04-04T05:16:23.875Z,5.26
2019-04-04T05:18:55.896Z,5.33
2019-04-04T05:21:28.835Z,5.35
2019-04-04T05:24:00.294Z,5.35
2019-04-04T05:26:32.265Z,5.33
2019-04-04T05:29:05.099Z,5.37
2019-04-04T05:31:36.366Z,5.44
2019-04-04T05:34:07.723Z,5.45
2019-04-04T05:36:39.098Z,5.48
2019-04-04T05:39:11.031Z,5.50
2019-04-04T05:41:42.752Z,5.55
2019-04-04T05:44:14.424Z,5.54
2019-04-04T05:46:45.747Z,5.53
2019-04-04T05:49:17.089Z,5.55
2019-04-04T05:51:49.050Z,5.63
2019-04-04T05:54:20.447Z,5.60
2019-04-04T05:56:51.762Z,5.61
2019-04-04T05:59:23.922Z,5.62
2019-04-04T06:01:56.530Z,5.66
2019-04-04T06:04:27.833Z,5.71
2019-04-04T06:06:59.138Z,5.71
2019-04-04T06:09:31.161Z,5.71
2019-04-04T06:12:02.443Z,5.76
2019-04-04T06:14:33.611Z,5.79
2019-04-04T06:17:07.170Z,5.84
2019-04-04T06:19:38.579Z,5.84
2019-04-04T06:22:10.606Z,5.96
2019-04-04T06:24:42.613Z,5.99
2019-04-04T06:27:13.923Z,6.04
2019-04-04T06:29:47.603Z,6.03
2019-04-04T06:32:18.450Z,6.07
2019-04-04T06:34:50.109Z,6.16
2019-04-04T06:37:21.413Z,6.19
2019-04-04T06:39:54.358Z,6.25
2019-04-04T06:42:25.687Z,6.31
2019-04-04T06:44:57.537Z,6.23
2019-04-04T06:47:32.268Z,6.21
2019-04-04T06:50:02.900Z,6.36
2019-04-04T06:52:34.536Z,6.39
2019-04-04T06:55:06.044Z,6.47
2019-04-04T06:57:37.782Z,6.46
2019-04-04T07:00:11.073Z,6.48
2019-04-04T07:02:42.338Z,6.48
2019-04-04T07:05:14.281Z,6.50
2019-04-04T07:07:46.723Z,6.52
2019-04-04T07:10:21.032Z,6.56
2019-04-04T07:12:51.308Z,6.57
2019-04-04T07:15:23.062Z,6.70
2019-04-04T07:17:55.184Z,6.72
2019-04-04T07:20:28.367Z,6.74
2019-04-04T07:22:59.446Z,6.70
2019-04-04T07:25:31.476Z,6.78
2019-04-04T07:28:03.060Z,6.84
2019-04-04T07:30:34.643Z,6.74
2019-04-04T07:33:06.297Z,6.77
2019-04-04T07:35:38.458Z,6.82
2019-04-04T07:38:10.249Z,6.86
2019-04-04T07:40:41.570Z,6.92
2019-04-04T07:43:12.910Z,6.88
2019-04-04T07:45:44.179Z,6.98
2019-04-04T07:48:17.843Z,7.12
2019-04-04T07:50:51.238Z,7.16
2019-04-04T07:53:21.324Z,7.23
2019-04-04T07:55:52.576Z,7.24
2019-04-04T07:58:23.953Z,7.22
2019-04-04T08:00:55.993Z,7.26
2019-04-04T08:03:27.653Z,7.28
2019-04-04T08:05:58.953Z,7.25
2019-04-04T08:08:30.227Z,7.46
2019-04-04T08:11:01.478Z,7.46
2019-04-04T08:13:32.858Z,7.49
2019-04-04T08:16:04.695Z,7.51
2019-04-04T08:18:36.010Z,7.52
2019-04-04T08:21:07.704Z,7.54
2019-04-04T08:23:39.129Z,7.53
2019-04-04T08:26:10.385Z,7.58
2019-04-04T08:28:42.054Z,7.54
2019-04-04T08:31:13.344Z,7.53
2019-04-04T08:33:44.688Z,7.61
2019-04-04T08:36:16.002Z,7.69
2019-04-04T08:38:47.313Z,7.65
2019-04-04T08:41:19.514Z,7.75
2019-04-04T08:43:50.739Z,7.77
2019-04-04T08:46:22.716Z,7.83
2019-04-04T08:48:53.980Z,7.87
2019-04-04T08:51:25.318Z,7.84
2019-04-04T08:53:56.675Z,7.85
2019-04-04T08:56:28.401Z,7.94
2019-04-04T08:59:00.112Z,8.08
2019-04-04T09:01:32.143Z,7.96
2019-04-04T09:04:03.765Z,7.98
2019-04-04T09:06:35.862Z,8.07
2019-04-04T09:09:09.585Z,8.04
2019-04-04T09:11:40.848Z,8.06
2019-04-04T09:14:12.483Z,8.03
2019-04-04T09:16:44.110Z,8.08
2019-04-04T09:19:15.371Z,8.25
2019-04-04T09:21:46.745Z,8.30
2019-04-04T09:24:18.056Z,8.34
2019-04-04T09:26:49.710Z,8.41
2019-04-04T09:29:22.077Z,8.54
2019-04-04T09:31:53.360Z,8.54
2019-04-04T09:34:25.514Z,8.65
2019-04-04T09:36:57.177Z,8.71
2019-04-04T09:39:28.706Z,8.73
2019-04-04T09:42:01.202Z,8.82
2019-04-04T09:44:33.086Z,8.96
2019-04-04T09:47:05.726Z,9.02
2019-04-04T09:49:37.572Z,9.10
2019-04-04T09:52:09.231Z,9.25
2019-04-04T09:54:40.735Z,9.32
2019-04-04T09:57:11.968Z,9.46
2019-04-04T09:59:44.502Z,9.52
2019-04-04T10:02:16.265Z,9.56
2019-04-04T10:04:47.923Z,9.69
2019-04-04T10:07:19.217Z,9.76
2019-04-04T10:09:50.781Z,9.87
2019-04-04T10:12:22.123Z,9.79
2019-04-04T10:14:53.824Z,9.85
2019-04-04T10:17:25.571Z,9.95
2019-04-04T10:19:57.020Z,9.93
2019-04-04T10:22:29.131Z,10.11
2019-04-04T10:25:00.372Z,10.10
2019-04-04T10:27:31.617Z,9.94
2019-04-04T10:30:02.912Z,10.02
2019-04-04T10:32:34.523Z,10.25
2019-04-04T10:35:06.547Z,10.39
2019-04-04T10:37:38.522Z,10.29
2019-04-04T10:40:10.334Z,10.25
2019-04-04T10:42:42.047Z,10.45
2019-04-04T10:45:13.505Z,10.37
2019-04-04T10:47:44.754Z,10.54
2019-04-04T10:50:16.334Z,10.69
2019-04-04T10:52:47.653Z,10.76
2019-04-04T10:55:19.428Z,10.74
2019-04-04T10:57:51.253Z,10.90
2019-04-04T11:00:23.824Z,10.85
2019-04-04T11:02:55.973Z,11.01
2019-04-04T11:05:27.303Z,11.25
2019-04-04T11:07:59.788Z,11.00
2019-04-04T11:10:31.299Z,11.16
2019-04-04T11:13:03.150Z,11.31
2019-04-04T11:15:35.010Z,11.41
2019-04-04T11:18:06.307Z,11.39
2019-04-04T11:20:38.417Z,10.88
2019-04-04T11:23:09.806Z,11.09
2019-04-04T11:25:41.376Z,11.34
2019-04-04T11:28:13.698Z,11.57
2019-04-04T11:30:44.997Z,11.72
2019-04-04T11:33:16.248Z,11.85
2019-04-04T11:35:47.799Z,11.92
2019-04-04T11:38:19.398Z,12.25
2019-04-04T11:40:50.685Z,11.98
2019-04-04T11:43:22.278Z,11.93
2019-04-04T11:45:56.126Z,11.97
2019-04-04T11:48:27.782Z,12.34
2019-04-04T11:50:59.602Z,12.10
2019-04-04T11:53:30.904Z,12.05
2019-04-04T11:56:02.237Z,11.98
2019-04-04T11:58:33.888Z,11.96
2019-04-04T12:01:07.724Z,11.57
2019-04-04T12:03:40.165Z,12.05
2019-04-04T12:06:11.792Z,12.05
2019-04-04T12:08:43.110Z,11.57
2019-04-04T12:11:15.614Z,12.18
2019-04-04T12:13:50.424Z,12.41
2019-04-04T12:16:20.989Z,12.19
2019-04-04T12:18:53.014Z,12.49
2019-04-04T12:21:24.307Z,11.71
2019-04-04T12:23:55.626Z,11.68
2019-04-04T12:26:29.280Z,11.33
2019-04-04T12:29:01.708Z,11.64
2019-04-04T12:31:33.019Z,11.64
2019-04-04T12:34:05.028Z,11.79
2019-04-04T12:36:36.982Z,11.84
2019-04-04T12:39:10.559Z,12.13
2019-04-04T12:41:42.256Z,11.72
2019-04-04T12:44:13.547Z,11.30
2019-04-04T12:46:45.309Z,11.35
2019-04-04T12:49:16.624Z,11.26
2019-04-04T12:51:48.484Z,11.49
2019-04-04T12:54:19.830Z,11.45
2019-04-04T12:56:51.557Z,11.24
2019-04-04T12:59:25.136Z,11.43
2019-04-04T13:01:56.454Z,11.45
2019-04-04T13:04:31.985Z,11.71
2019-04-04T13:07:00.669Z,12.10
2019-04-04T13:09:32.695Z,11.86
2019-04-04T13:12:04.166Z,11.77
2019-04-04T13:14:35.523Z,11.84
2019-04-04T13:17:06.944Z,12.06
2019-04-04T13:19:39.621Z,12.05
2019-04-04T13:22:11.100Z,12.03
2019-04-04T13:24:42.440Z,11.91
2019-04-04T13:27:14.422Z,12.04
2019-04-04T13:29:45.673Z,12.26
2019-04-04T13:32:16.969Z,12.14
2019-04-04T13:34:58.565Z,12.14
2019-04-04T13:37:21.044Z,11.68
2019-04-04T13:39:52.688Z,11.74
2019-04-04T13:42:24.030Z,11.80
2019-04-04T13:44:55.708Z,11.51
2019-04-04T13:47:27.011Z,11.60
2019-04-04T13:49:58.368Z,12.00
2019-04-04T13:52:30.404Z,11.69
2019-04-04T13:55:01.715Z,11.75
2019-04-04T13:57:33.072Z,11.92
2019-04-04T14:00:06.122Z,11.77
2019-04-04T14:02:56.311Z,11.58
2019-04-04T14:05:40.268Z,11.83
2019-04-04T14:08:37.116Z,11.86
2019-04-04T14:11:42.191Z,11.87
2019-04-04T14:14:29.053Z,11.49
2019-04-04T14:17:21.308Z,11.45
2019-04-04T14:20:13.785Z,11.28
2019-04-04T14:23:10.361Z,11.53
2019-04-04T14:25:59.687Z,11.71
2019-04-04T14:28:51.079Z,11.83
2019-04-04T14:31:33.734Z,11.74
2019-04-04T14:34:37.923Z,11.79
2019-04-04T14:37:27.278Z,11.85
2019-04-04T14:40:01.880Z,11.86
2019-04-04T14:42:33.289Z,11.96
2019-04-04T14:45:25.866Z,11.93
2019-04-04T14:48:18.565Z,11.89
2019-04-04T14:51:11.192Z,12.01
2019-04-04T14:54:16.375Z,12.20
2019-04-04T14:57:16.983Z,12.22
2019-04-04T15:00:06.058Z,12.37
2019-04-04T15:03:13.774Z,12.23
2019-04-04T15:06:08.475Z,12.36
2019-04-04T15:09:22.402Z,12.57
2019-04-04T15:12:07.353Z,12.39
2019-04-04T15:14:58.496Z,12.65
2019-04-04T15:17:50.921Z,12.89
2019-04-04T15:20:47.312Z,12.79
2019-04-04T15:23:34.249Z,12.82
2019-04-04T15:26:25.077Z,12.89
2019-04-04T15:29:21.066Z,13.02
2019-04-04T15:32:04.478Z,12.97
2019-04-04T15:34:58.929Z,12.97
2019-04-04T15:37:42.853Z,12.66
2019-04-04T15:40:33.413Z,12.72
2019-04-04T15:43:48.367Z,12.54
2019-04-04T15:46:45.247Z,12.65
2019-04-04T15:49:48.954Z,12.53
2019-04-04T15:52:46.073Z,12.22
2019-04-04T15:55:50.132Z,12.29
2019-04-04T15:58:52.163Z,12.18
2019-04-04T16:01:42.240Z,12.10
2019-04-04T16:04:34.655Z,12.03
2019-04-04T16:07:44.601Z,11.83
2019-04-04T16:10:31.017Z,11.86
2019-04-04T16:13:31.035Z,11.79
2019-04-04T16:16:31.891Z,11.88
2019-04-04T16:19:33.104Z,11.86
2019-04-04T16:22:21.606Z,11.76
2019-04-04T16:25:12.625Z,11.47
2019-04-04T16:28:00.536Z,11.47
2019-04-04T16:31:01.203Z,11.32
2019-04-04T16:33:43.117Z,11.24
2019-04-04T16:37:04.463Z,11.00
2019-04-04T16:39:50.782Z,11.01
2019-04-04T16:42:20.562Z,10.94
2019-04-04T16:44:52.137Z,10.86
2019-04-04T16:47:23.452Z,10.85
2019-04-04T16:49:54.868Z,10.76
2019-04-04T16:52:26.534Z,10.82
2019-04-04T16:54:57.926Z,10.66
2019-04-04T16:57:29.658Z,10.60
2019-04-04T17:00:00.964Z,10.72
2019-04-04T17:02:32.295Z,10.64
2019-04-04T17:05:04.456Z,10.55
2019-04-04T17:07:35.867Z,10.41
2019-04-04T17:10:08.978Z,10.48
2019-04-04T17:12:40.323Z,10.28
2019-04-04T17:15:13.284Z,10.20
2019-04-04T17:17:44.701Z,10.11
2019-04-04T17:20:16.554Z,10.05
2019-04-04T17:22:48.258Z,9.94
2019-04-04T17:25:19.908Z,9.87
2019-04-04T17:27:52.151Z,9.79
2019-04-04T17:30:23.410Z,9.68
2019-04-04T17:32:55.775Z,9.60
2019-04-04T17:35:27.427Z,9.55
2019-04-04T17:37:58.771Z,9.43
2019-04-04T17:40:30.200Z,9.39
2019-04-04T17:43:01.504Z,9.28
2019-04-04T17:45:32.858Z,9.31
2019-04-04T17:48:05.083Z,9.24
2019-04-04T17:50:36.789Z,9.22
2019-04-04T17:53:08.726Z,9.25
2019-04-04T17:55:40.421Z,9.22
2019-04-04T17:58:12.779Z,9.21
2019-04-04T18:00:44.190Z,9.19
2019-04-04T18:03:16.449Z,9.21
2019-04-04T18:05:47.874Z,9.16
2019-04-04T18:08:19.283Z,9.19
2019-04-04T18:10:50.544Z,9.19
2019-04-04T18:13:21.884Z,9.15
2019-04-04T18:15:55.015Z,9.16
2019-04-04T18:18:26.343Z,9.19
2019-04-04T18:20:58.050Z,9.12
2019-04-04T18:23:29.781Z,9.18
2019-04-04T18:26:01.566Z,9.16
2019-04-04T18:28:33.233Z,9.16
2019-04-04T18:31:05.014Z,9.11
2019-04-04T18:33:36.696Z,9.09
2019-04-04T18:36:08.286Z,9.08
2019-04-04T18:38:40.214Z,9.07
2019-04-04T18:41:11.535Z,9.11
2019-04-04T18:43:42.901Z,9.14
2019-04-04T18:46:14.186Z,9.17
2019-04-04T18:48:46.093Z,9.11
2019-04-04T18:51:17.573Z,9.09
2019-04-04T18:53:49.294Z,9.06
2019-04-04T18:56:21.080Z,9.10
2019-04-04T18:58:52.450Z,9.04
2019-04-04T19:01:23.805Z,9.05
2019-04-04T19:03:55.982Z,9.06
2019-04-04T19:06:27.721Z,9.07
2019-04-04T19:09:00.428Z,9.03
2019-04-04T19:11:31.816Z,9.03
2019-04-04T19:14:03.164Z,9.02
2019-04-04T19:16:35.271Z,8.96
2019-04-04T19:19:06.679Z,8.91
2019-04-04T19:21:38.028Z,8.90
2019-04-04T19:24:09.398Z,8.82
2019-04-04T19:26:40.829Z,8.78
2019-04-04T19:29:12.537Z,8.70
2019-04-04T19:31:46.201Z,8.61
2019-04-04T19:34:17.754Z,8.52
2019-04-04T19:36:49.059Z,8.50
2019-04-04T19:39:20.799Z,8.47
2019-04-04T19:41:52.901Z,8.40
2019-04-04T19:44:24.480Z,8.33
2019-04-04T19:46:55.856Z,8.31
2019-04-04T19:49:27.806Z,8.27
2019-04-04T19:51:59.497Z,8.19
2019-04-04T19:54:31.242Z,8.06
2019-04-04T19:57:02.610Z,8.06
2019-04-04T19:59:33.921Z,8.01
2019-04-04T20:02:05.234Z,7.95
2019-04-04T20:04:36.522Z,7.80
2019-04-04T20:07:08.213Z,7.80
2019-04-04T20:09:39.513Z,7.78
2019-04-04T20:12:14.631Z,7.77
2019-04-04T20:14:45.951Z,7.70
2019-04-04T20:17:17.250Z,7.69
2019-04-04T20:19:48.644Z,7.61
2019-04-04T20:22:19.989Z,7.58
2019-04-04T20:24:51.329Z,7.49
2019-04-04T20:27:22.769Z,7.49
2019-04-04T20:29:54.880Z,7.47
2019-04-04T20:32:26.343Z,7.43
2019-04-04T20:34:57.692Z,7.40
2019-04-04T20:37:29.022Z,7.35
2019-04-04T20:40:09.744Z,7.31
2019-04-04T20:42:41.469Z,7.28
2019-04-04T20:45:13.104Z,7.26
2019-04-04T20:47:44.408Z,7.20
2019-04-04T20:50:15.913Z,7.22
2019-04-04T20:52:48.180Z,7.19
2019-04-04T20:55:19.506Z,7.20
2019-04-04T20:57:51.226Z,7.17
2019-04-04T21:00:23.508Z,7.18
2019-04-04T21:02:55.717Z,7.18
2019-04-04T21:05:27.212Z,7.15
2019-04-04T21:07:59.008Z,7.18
2019-04-04T21:10:30.361Z,7.13
2019-04-04T21:13:01.888Z,7.14
2019-04-04T21:15:37.032Z,7.15
2019-04-04T21:18:08.493Z,7.14
2019-04-04T21:20:40.291Z,7.14
2019-04-04T21:23:11.597Z,7.15
2019-04-04T21:25:43.247Z,7.11
2019-04-04T21:28:15.567Z,7.13
2019-04-04T21:30:47.471Z,7.10
2019-04-04T21:33:19.842Z,7.05
2019-04-04T21:35:51.222Z,7.09
2019-04-04T21:38:22.696Z,7.07
2019-04-04T21:40:54.429Z,7.10
2019-04-04T21:43:26.993Z,7.08
2019-04-04T21:45:59.163Z,7.13
2019-04-04T21:48:30.941Z,7.17
2019-04-04T21:51:02.266Z,7.12
2019-04-04T21:53:33.933Z,7.14
2019-04-04T21:56:05.335Z,7.16
2019-04-04T21:58:37.586Z,7.22
2019-04-04T22:01:09.245Z,7.24
2019-04-04T22:03:40.982Z,7.25
2019-04-04T22:06:12.713Z,7.32
2019-04-04T22:08:46.998Z,7.37
2019-04-04T22:11:18.815Z,7.41
2019-04-04T22:13:50.176Z,7.40
2019-04-04T22:16:21.914Z,7.47
2019-04-04T22:18:53.299Z,7.50
2019-04-04T22:21:25.212Z,7.58
2019-04-04T22:23:56.881Z,7.60
2019-04-04T22:26:29.610Z,7.64
2019-04-04T22:29:01.013Z,7.69
2019-04-04T22:31:32.314Z,7.69
2019-04-04T22:34:03.626Z,7.69
2019-04-04T22:36:34.987Z,7.71
2019-04-04T22:39:08.712Z,7.72
2019-04-04T22:41:40.027Z,7.73
2019-04-04T22:44:11.451Z,7.78
2019-04-04T22:46:42.744Z,7.77
2019-04-04T22:49:14.404Z,7.79
2019-04-04T22:51:45.761Z,7.79
2019-04-04T22:54:17.828Z,7.80
2019-04-04T22:56:49.489Z,7.80
2019-04-04T22:59:21.291Z,7.77
2019-04-04T23:01:52.608Z,7.77
2019-04-04T23:04:23.942Z,7.78
2019-04-04T23:06:55.620Z,7.80
2019-04-04T23:09:27.289Z,7.80
2019-04-04T23:11:58.643Z,7.78
2019-04-04T23:14:30.469Z,7.78
2019-04-04T23:17:02.062Z,7.78
2019-04-04T23:19:33.329Z,7.75
2019-04-04T23:22:04.670Z,7.77
2019-04-04T23:24:36.379Z,7.78
2019-04-04T23:27:07.645Z,7.80
2019-04-04T23:29:38.993Z,7.80
2019-04-04T23:32:10.703Z,7.79
2019-04-04T23:34:42.058Z,7.81
2019-04-04T23:37:13.414Z,7.80
2019-04-04T23:39:45.463Z,7.81
2019-04-04T23:42:16.866Z,7.80
2019-04-04T23:45:00.179Z,7.82
2019-04-04T23:47:21.676Z,7.81
2019-04-04T23:49:52.979Z,7.81
2019-04-04T23:52:24.910Z,7.81
2019-04-04T23:54:56.536Z,7.82
2019-04-04T23:57:28.284Z,7.81
